aviador You're here:

KSIK Decoded Metar

in
Report Time2017-11-23 03:15:00
UTC Time2017-11-23 03:29:56
Flight Rules ifr IFR
Wind110° at 06 kt
W.Decomp.*RWY 02: 6.0 kt RCW
W.Rank110° ranks 29
Current wind is above 110° avg. (5.2)
Visibility4023 m
Phenomena:Haze
Clouds:N/A
Expected CloudBase > 1,200 ft AGL from Temp-Dew spread
CeilingNone
Temp-1°C
Dew Point-4°C (80% RH)
AAT-5.7°C
QNH1025 hPa
Raw Report
KSIK 230315Z AUTO 11006KT 2 1/2SM HZ CLR M01/M04 A3026 RMK AO2 VIS
2V5=

Extra information for KSIK:More info

Social comments